Aeroporto :







RITROVATECI SU...

 
LOGIN :

Iscrizione | Disclaimer

   EN    FR    IT 

 









Sommario :    VFR   VFR Marginale   IFR   IFR Intensivo   IFR Molto Intensivo
Visibilità : 
Base nubi : 
>= 8 km
>= 3000ft
5 / 8 km
1000 / 3000 ft
1500m / 5 km
500 / 1000 ft
800 / 1500m
200 / 500 ft
< 800m
< 200 ft
Simboli :   Temporali  Nebbia  Neve Forte  Precipitazioni Forti  Vento > 20 kt






- Altitudine del aeroporto : 110 ft
- Codice IATA : YFB


CYFB - Iqaluit

ULTIMO METAR :
  • 171300Z VRB02KT 30SM R34/4500VP6000FT/U IC FEW040 FEW120 M33/M37 A2952 RMK SC1AC1 SLP004

METARs OBSOLETI :
  • 171200Z 34003KT 30SM IC FEW120 M32/M36 A2951 RMK AC1 SLP999
  • 171100Z VRB02KT 15SM IC FEW120 M32/M36 A2949 RMK AC2 SLP993

TAF TAF CYFB
Valido dal 17 a 12 ore il 18 a 12 ore UTC


171138Z 1712/1812 35005KT P6SM FEW120
BECMG 1804/1806 04008KT RMK NXT FCST BY 171800Z



MetMap, La meteo Aeronautica in un colpo d'occhio ! - Copyright ORBIFLY Dicembre 2007 - Disclaimer

ORBIFLY MET'MAP TEAM :

Programmazione e sviluppo : Alexandra Zaïnal
Concezione : Baudouin d'Aumeries
Aiuto per la programmazione : Marc-Olivier Méhu
Supporto tecnico e logistico : Manuel Goepfert
Aiuto per la traduzione : Arnaldo La Scala

Contatto : metmap@orbifly.com




FONTI E CREDITI :

   NOAA